Time;durP1;ratioP1;P1;durP2;ratioP2;P2;SDS_P1;SDS_P2;PMS_P1;PMS_P2;Temp;Humidity;BMP_temperature;BMP_pressure;BME280_temperature;BME280_humidity;BME280_pressure;Samples;Min_cycle;Max_cycle;Signal;HPM_P1;HPM_P2
2022/11/07 00:01:34;;;;;;;8.40;5.30;;;23.00;99.10;;;;;;5012219;28;20412;-92
2022/11/07 00:04:01;;;;;;;6.45;4.90;;;23.30;99.40;;;;;;5012039;28;20669;-91
2022/11/07 00:06:29;;;;;;;10.43;4.65;;;23.40;98.40;;;;;;5011927;28;20411;-86
2022/11/07 00:08:57;;;;;;;7.25;4.40;;;23.30;97.80;;;;;;5012447;28;20950;-90
2022/11/07 00:11:24;;;;;;;6.97;4.43;;;23.10;97.70;;;;;;5011588;28;20387;-86
2022/11/07 00:13:51;;;;;;;8.80;4.27;;;22.90;97.40;;;;;;5011693;28;20383;-86
2022/11/07 00:16:18;;;;;;;8.30;4.70;;;22.90;98.30;;;;;;5011319;28;20735;-90
2022/11/07 00:18:45;;;;;;;7.78;4.70;;;23.00;98.30;;;;;;5011901;28;20739;-87
2022/11/07 00:21:12;;;;;;;8.48;4.95;;;23.30;97.60;;;;;;5011491;28;20397;-90
2022/11/07 00:23:42;;;;;;;6.78;4.35;;;23.30;97.50;;;;;;5011980;28;20834;-86
2022/11/07 00:26:12;;;;;;;6.85;4.43;;;23.30;96.70;;;;;;5011901;28;20407;-86
2022/11/07 00:28:41;;;;;;;6.70;4.43;;;23.10;96.80;;;;;;5015909;28;20958;-88
2022/11/07 00:31:10;;;;;;;6.00;4.50;;;22.90;96.70;;;;;;5016735;28;20379;-89
2022/11/07 00:33:37;;;;;;;7.23;4.40;;;23.00;97.70;;;;;;5014461;28;20383;-89
2022/11/07 00:36:04;;;;;;;11.33;4.80;;;23.20;97.90;;;;;;5012530;28;20411;-88
2022/11/07 00:38:32;;;;;;;8.88;4.30;;;23.50;97.00;;;;;;5011015;28;20395;-88
2022/11/07 00:41:05;;;;;;;5.68;4.03;;;23.60;95.90;;;;;;5011538;28;20855;-88
2022/11/07 00:43:32;;;;;;;8.13;4.00;;;23.60;96.00;;;;;;5011249;28;20883;-89
2022/11/07 00:46:03;;;;;;;9.05;3.83;;;23.60;95.70;;;;;;5011300;28;20413;-87
2022/11/07 00:48:31;;;;;;;7.38;3.70;;;23.70;95.50;;;;;;5011320;28;20406;-88
2022/11/07 00:51:05;;;;;;;5.88;3.40;;;23.60;95.40;;;;;;5011046;28;20371;-90
2022/11/07 00:53:33;;;;;;;5.85;3.60;;;23.60;95.40;;;;;;5009843;28;20806;-88
2022/11/07 00:56:06;;;;;;;7.93;3.72;;;23.80;94.20;;;;;;5010943;28;20869;-89
2022/11/07 00:58:33;;;;;;;7.28;4.10;;;23.90;94.30;;;;;;5011039;28;20414;-86
2022/11/07 01:01:12;;;;;;;6.95;3.90;;;23.90;93.50;;;;;;5011072;28;20391;-88
2022/11/07 01:06:28;;;;;;;7.85;4.38;;;24.00;94.30;;;;;;4984577;28;20429;-91
2022/11/07 01:08:55;;;;;;;9.57;4.07;;;24.10;94.50;;;;;;5011008;28;20378;-87
2022/11/07 01:11:23;;;;;;;8.93;4.35;;;24.40;93.20;;;;;;4996855;28;20553;-89
2022/11/07 01:13:53;;;;;;;8.23;4.70;;;24.50;93.80;;;;;;5010689;28;20382;-87
2022/11/07 01:16:20;;;;;;;8.20;4.90;;;24.70;92.70;;;;;;5010525;28;20379;-88
2022/11/07 01:18:47;;;;;;;9.18;4.65;;;24.40;92.40;;;;;;5010762;28;20388;-89
2022/11/07 01:21:14;;;;;;;7.85;4.60;;;24.20;92.30;;;;;;4996930;28;20396;-87
2022/11/07 01:23:41;;;;;;;7.13;4.47;;;23.90;92.60;;;;;;5010861;28;20391;-86
2022/11/07 01:26:11;;;;;;;6.97;4.60;;;23.80;93.40;;;;;;5025778;28;20836;-87
2022/11/07 01:28:38;;;;;;;9.73;5.25;;;23.80;93.10;;;;;;5010451;28;20375;-86
2022/11/07 01:31:08;;;;;;;8.77;4.77;;;23.60;93.50;;;;;;5010565;28;20479;-87
2022/11/07 01:33:36;;;;;;;8.18;4.90;;;23.60;93.40;;;;;;5009783;28;20379;-86
2022/11/07 01:36:11;;;;;;;7.27;4.53;;;23.60;93.70;;;;;;5010985;28;20406;-87
2022/11/07 01:38:40;;;;;;;7.35;4.57;;;23.60;93.50;;;;;;5004418;28;20463;-91
2022/11/07 01:41:25;;;;;;;10.73;5.05;;;23.60;93.70;;;;;;4991149;28;20741;-86
2022/11/07 01:44:03;;;;;;;9.00;4.77;;;23.60;93.50;;;;;;4985274;28;20426;-88
2022/11/07 01:46:33;;;;;;;11.77;4.95;;;23.70;93.20;;;;;;5009546;28;20735;-90
2022/11/07 01:49:21;;;;;;;14.02;4.40;;;24.00;93.70;;;;;;5003459;28;20419;-90
2022/11/07 01:52:06;;;;;;;10.40;4.50;;;25.10;92.60;;;;;;5006784;28;20378;-88
2022/11/07 01:54:57;;;;;;;11.25;4.20;;;25.50;90.90;;;;;;5010439;28;20363;-89
2022/11/07 01:57:31;;;;;;;7.50;4.00;;;26.60;90.00;;;;;;4971938;28;20386;-89
2022/11/07 02:00:03;;;;;;;7.43;3.70;;;28.10;84.70;;;;;;4973319;28;20402;-88
2022/11/07 02:02:30;;;;;;;6.78;3.75;;;29.40;78.40;;;;;;4973209;28;20382;-85
2022/11/07 02:04:59;;;;;;;8.53;3.83;;;30.10;72.60;;;;;;4973727;28;20751;-86
2022/11/07 02:07:27;;;;;;;6.75;3.30;;;29.20;69.50;;;;;;4960863;28;20407;-88
2022/11/07 02:09:54;;;;;;;8.38;3.40;;;28.40;70.50;;;;;;4975514;28;20405;-86
2022/11/07 02:12:24;;;;;;;6.88;3.38;;;27.80;71.20;;;;;;4981871;28;20397;-86
2022/11/07 02:14:51;;;;;;;6.78;3.22;;;27.10;72.40;;;;;;5001577;28;20925;-86
2022/11/07 02:17:18;;;;;;;6.18;3.33;;;26.50;73.90;;;;;;4974985;28;20406;-85
2022/11/07 02:19:55;;;;;;;5.87;3.20;;;26.00;76.10;;;;;;4986745;28;20386;-85
2022/11/07 02:22:53;;;;;;;9.43;3.42;;;25.50;79.30;;;;;;4983583;28;20383;-86
2022/11/07 02:25:20;;;;;;;5.85;3.08;;;26.00;81.80;;;;;;4976160;28;20410;-86
2022/11/07 02:27:51;;;;;;;8.55;2.90;;;27.10;79.90;;;;;;4974609;28;20382;-87
2022/11/07 02:30:21;;;;;;;5.82;2.78;;;28.90;74.40;;;;;;4974429;28;20391;-89
2022/11/07 02:32:49;;;;;;;7.68;2.78;;;30.30;71.10;;;;;;4975642;28;20783;-90
2022/11/07 02:35:39;;;;;;;4.50;2.75;;;31.60;64.60;;;;;;5006411;28;20843;-88
2022/11/07 02:38:13;;;;;;;7.47;3.10;;;31.30;62.60;;;;;;5014317;28;20948;-88
2022/11/07 02:40:41;;;;;;;8.70;2.70;;;30.80;63.10;;;;;;5009494;28;20505;-84
2022/11/07 02:43:11;;;;;;;6.10;2.63;;;31.20;61.70;;;;;;5006104;28;20907;-83
2022/11/07 02:45:41;;;;;;;4.00;2.40;;;31.80;61.30;;;;;;5003965;28;20775;-84
2022/11/07 02:48:08;;;;;;;9.95;2.80;;;31.50;59.30;;;;;;4993911;28;20385;-84
2022/11/07 02:50:35;;;;;;;4.05;2.13;;;30.70;60.00;;;;;;4987588;28;20386;-84
2022/11/07 02:53:02;;;;;;;4.43;2.10;;;30.10;61.30;;;;;;5004865;28;20381;-84
2022/11/07 02:55:29;;;;;;;4.35;2.00;;;29.40;62.10;;;;;;4994061;28;20377;-84
2022/11/07 02:57:56;;;;;;;4.00;2.00;;;28.80;63.90;;;;;;5013223;28;20820;-83
2022/11/07 03:00:23;;;;;;;4.63;2.13;;;29.00;64.70;;;;;;4999196;28;20397;-83
2022/11/07 03:02:50;;;;;;;4.32;2.05;;;29.50;65.20;;;;;;5012523;28;20798;-85
2022/11/07 03:05:19;;;;;;;5.50;1.80;;;29.80;63.50;;;;;;5013709;28;20419;-82
2022/11/07 03:07:48;;;;;;;6.63;1.90;;;29.40;62.80;;;;;;5013050;28;20422;-83
2022/11/07 03:10:17;;;;;;;36.47;2.97;;;28.70;64.10;;;;;;5005990;28;20813;-83
2022/11/07 03:12:44;;;;;;;22.33;2.47;;;28.00;66.80;;;;;;5008538;28;20716;-82
2022/11/07 03:15:12;;;;;;;65.07;3.90;;;27.40;68.20;;;;;;5013220;28;20382;-85
2022/11/07 03:17:41;;;;;;;7.05;1.92;;;27.00;69.40;;;;;;5001977;28;20731;-83
2022/11/07 03:20:09;;;;;;;5.40;1.77;;;28.20;69.20;;;;;;5013271;28;20486;-85
2022/11/07 03:22:36;;;;;;;4.07;1.67;;;29.40;64.40;;;;;;5012729;28;20383;-84
2022/11/07 03:25:03;;;;;;;3.40;1.70;;;29.40;62.70;;;;;;4992535;28;20400;-83
2022/11/07 03:27:30;;;;;;;6.63;1.73;;;29.20;63.10;;;;;;5004697;28;20466;-83
2022/11/07 03:29:57;;;;;;;3.67;1.40;;;29.80;64.00;;;;;;5012629;28;20383;-82
2022/11/07 03:32:24;;;;;;;2.78;1.48;;;30.90;62.20;;;;;;5012473;28;20386;-83
2022/11/07 03:34:51;;;;;;;4.88;1.27;;;31.50;60.50;;;;;;5012596;28;20383;-83
2022/11/07 03:37:18;;;;;;;6.22;1.70;;;32.20;59.00;;;;;;5003841;28;20385;-82
2022/11/07 03:39:48;;;;;;;3.88;1.50;;;33.40;57.30;;;;;;4993792;28;20485;-83
2022/11/07 03:42:16;;;;;;;3.42;1.40;;;34.10;55.30;;;;;;5012944;28;20419;-84
2022/11/07 03:44:43;;;;;;;5.18;1.48;;;34.00;54.00;;;;;;5012435;28;20399;-83
2022/11/07 03:47:10;;;;;;;3.63;1.20;;;32.90;54.70;;;;;;5015402;28;20429;-82
2022/11/07 03:49:36;;;;;;;6.55;1.10;;;31.60;55.50;;;;;;5016543;28;20375;-82
2022/11/07 03:52:04;;;;;;;3.83;1.02;;;30.50;56.90;;;;;;5005972;28;20730;-82
2022/11/07 03:54:31;;;;;;;2.80;1.00;;;29.60;58.10;;;;;;5014582;28;20379;-87
2022/11/07 03:56:58;;;;;;;2.40;0.80;;;28.80;59.60;;;;;;5005405;28;20387;-91
2022/11/07 03:59:25;;;;;;;2.58;0.80;;;28.10;61.40;;;;;;5000219;28;20798;-87
2022/11/07 04:01:52;;;;;;;3.63;0.90;;;27.50;63.40;;;;;;5010986;28;20394;-87
2022/11/07 04:04:19;;;;;;;3.70;0.90;;;27.00;64.80;;;;;;5006086;28;20858;-88
2022/11/07 04:06:46;;;;;;;4.43;0.85;;;26.60;66.20;;;;;;4995806;28;20413;-84
2022/11/07 04:09:13;;;;;;;3.58;0.90;;;26.40;66.80;;;;;;4985981;28;20524;-83
2022/11/07 04:17:18;;;;;;;3.95;0.98;;;25.80;67.90;;;;;;5002903;28;20414;-84
2022/11/07 04:19:47;;;;;;;3.67;0.80;;;25.80;68.20;;;;;;4992413;28;20389;-83
2022/11/07 04:22:14;;;;;;;3.35;0.82;;;25.80;68.30;;;;;;4997282;28;20966;-83
2022/11/07 04:24:43;;;;;;;3.03;0.90;;;25.80;68.30;;;;;;4995203;28;20387;-84
2022/11/07 04:29:56;;;;;;;1.92;0.70;;;25.60;69.40;;;;;;4997620;28;20386;-83
2022/11/07 04:32:23;;;;;;;2.92;0.75;;;25.40;69.90;;;;;;4991770;28;20487;-82
2022/11/07 04:34:53;;;;;;;4.60;1.00;;;25.30;69.90;;;;;;5004641;28;20398;-82
2022/11/07 04:37:21;;;;;;;2.45;0.80;;;25.30;70.00;;;;;;5005021;28;20868;-88
2022/11/07 04:39:48;;;;;;;2.65;0.80;;;25.30;70.70;;;;;;5005051;28;20471;-87
2022/11/07 04:42:15;;;;;;;2.87;0.70;;;25.40;69.60;;;;;;5011715;28;20389;-89
2022/11/07 04:44:42;;;;;;;3.45;0.70;;;25.50;69.30;;;;;;5007472;28;20407;-86
2022/11/07 04:47:09;;;;;;;4.30;0.80;;;25.70;69.20;;;;;;4992006;28;20443;-85
2022/11/07 04:49:36;;;;;;;4.10;0.90;;;26.30;69.10;;;;;;4993546;28;20380;-85
2022/11/07 04:52:03;;;;;;;3.45;0.82;;;27.90;66.60;;;;;;4994896;28;20476;-81
2022/11/07 04:54:30;;;;;;;2.97;0.70;;;29.40;63.60;;;;;;4989694;28;20928;-87
2022/11/07 04:56:57;;;;;;;1.60;0.60;;;29.70;60.30;;;;;;4985910;28;20820;-85
2022/11/07 04:59:24;;;;;;;2.20;0.70;;;30.10;58.40;;;;;;5009773;28;20881;-85
2022/11/07 05:01:51;;;;;;;3.78;0.70;;;30.70;58.30;;;;;;4995895;28;20808;-84
2022/11/07 05:04:18;;;;;;;2.50;0.70;;;31.70;56.60;;;;;;5001027;28;20444;-84
2022/11/07 05:06:45;;;;;;;2.50;0.70;;;32.10;54.30;;;;;;5011122;28;20414;-83
2022/11/07 05:09:16;;;;;;;1.80;0.70;;;32.20;54.20;;;;;;4998950;28;20385;-85
2022/11/07 05:11:47;;;;;;;2.45;0.80;;;32.40;54.10;;;;;;4997535;28;20418;-83
2022/11/07 05:14:14;;;;;;;1.60;0.70;;;32.40;53.20;;;;;;4991949;28;20431;-84
2022/11/07 05:16:42;;;;;;;3.13;0.73;;;32.50;52.60;;;;;;5003979;28;20428;-86
2022/11/07 05:19:19;;;;;;;1.88;0.70;;;32.60;51.90;;;;;;4994398;28;20475;-89
2022/11/07 05:21:46;;;;;;;2.90;0.70;;;32.50;51.60;;;;;;4992968;28;20489;-86
2022/11/07 05:24:14;;;;;;;2.60;0.80;;;32.30;52.20;;;;;;5006957;28;20400;-89
2022/11/07 05:26:42;;;;;;;1.27;0.60;;;32.10;52.30;;;;;;4997333;28;20407;-83
2022/11/07 05:29:10;;;;;;;2.67;0.70;;;32.00;51.90;;;;;;5011124;28;20395;-89
2022/11/07 05:31:37;;;;;;;2.35;0.77;;;31.80;52.40;;;;;;4999480;28;20451;-83
2022/11/07 05:34:04;;;;;;;1.98;0.63;;;32.00;52.50;;;;;;5003806;28;20901;-83
2022/11/07 05:36:31;;;;;;;2.05;0.70;;;32.50;51.50;;;;;;4994867;28;20435;-86
2022/11/07 05:38:58;;;;;;;3.10;0.80;;;32.30;51.50;;;;;;4997248;28;20488;-85
2022/11/07 05:41:25;;;;;;;3.77;0.80;;;32.00;51.00;;;;;;5000632;28;20854;-83
2022/11/07 05:43:52;;;;;;;2.70;0.80;;;31.60;51.20;;;;;;5005589;28;20389;-86
2022/11/07 05:46:19;;;;;;;1.38;0.68;;;31.50;51.00;;;;;;5001053;28;20770;-86
2022/11/07 05:48:46;;;;;;;1.57;0.63;;;31.10;52.30;;;;;;4997852;28;20467;-87
2022/11/07 05:51:13;;;;;;;1.80;0.50;;;31.50;51.20;;;;;;5007170;28;20406;-90
2022/11/07 05:53:40;;;;;;;4.55;0.75;;;31.70;51.30;;;;;;5004476;28;20388;-91
2022/11/07 05:56:07;;;;;;;1.27;0.60;;;31.70;51.00;;;;;;5013078;28;20390;-87
2022/11/07 05:58:36;;;;;;;1.38;0.60;;;30.80;51.40;;;;;;5006185;28;20974;-87
2022/11/07 06:01:05;;;;;;;2.50;0.60;;;30.70;52.80;;;;;;5013088;28;20403;-85
2022/11/07 06:03:32;;;;;;;2.15;0.50;;;30.80;52.60;;;;;;4997882;28;20384;-83
2022/11/07 06:05:59;;;;;;;2.40;0.60;;;31.20;52.80;;;;;;5003000;28;20422;-82
2022/11/07 06:08:26;;;;;;;2.20;0.70;;;31.70;51.60;;;;;;4999375;28;20869;-87
2022/11/07 06:10:53;;;;;;;2.92;0.85;;;31.90;50.40;;;;;;4994993;28;20864;-82
2022/11/07 06:13:20;;;;;;;2.20;0.60;;;31.90;49.40;;;;;;4993706;28;20397;-88
2022/11/07 06:15:47;;;;;;;2.88;0.77;;;31.70;49.60;;;;;;4996176;28;20400;-81
2022/11/07 06:18:18;;;;;;;2.60;0.70;;;31.90;49.60;;;;;;5005418;28;20479;-85
2022/11/07 06:20:45;;;;;;;1.13;0.60;;;31.70;50.20;;;;;;4993697;28;20396;-83
2022/11/07 06:23:12;;;;;;;2.70;0.52;;;31.50;49.00;;;;;;4997863;28;20475;-85
2022/11/07 06:25:39;;;;;;;1.30;0.50;;;31.20;50.40;;;;;;5004171;28;20780;-85
2022/11/07 06:28:08;;;;;;;1.88;0.60;;;30.90;49.50;;;;;;5000459;28;20441;-83
2022/11/07 06:30:36;;;;;;;2.20;1.08;;;30.20;51.00;;;;;;5005122;28;20402;-82
2022/11/07 06:33:09;;;;;;;2.83;0.60;;;30.20;50.20;;;;;;5006845;28;20480;-80
2022/11/07 06:35:36;;;;;;;1.35;0.50;;;30.00;51.40;;;;;;5004651;28;20491;-83
2022/11/07 06:38:06;;;;;;;4.63;0.60;;;30.20;51.30;;;;;;4993113;28;20408;-84
2022/11/07 06:40:33;;;;;;;1.27;0.50;;;30.20;51.10;;;;;;4996455;28;20396;-82
2022/11/07 06:43:13;;;;;;;1.73;0.60;;;30.20;50.90;;;;;;5006675;28;20394;-82
2022/11/07 06:45:41;;;;;;;1.48;0.60;;;30.00;51.20;;;;;;5013879;28;20429;-86
2022/11/07 06:48:09;;;;;;;1.33;0.55;;;29.70;51.20;;;;;;5000025;28;20389;-89
2022/11/07 06:50:36;;;;;;;2.28;0.63;;;29.60;51.10;;;;;;4999536;28;20786;-82
2022/11/07 06:53:09;;;;;;;1.25;0.60;;;29.40;51.30;;;;;;4996685;28;20392;-87
2022/11/07 06:55:37;;;;;;;1.92;0.70;;;29.40;52.10;;;;;;4997412;28;20865;-84
2022/11/07 06:58:05;;;;;;;1.02;0.50;;;29.40;50.80;;;;;;4998048;28;20393;-81
2022/11/07 07:00:37;;;;;;;2.35;0.60;;;29.30;50.80;;;;;;4996063;28;20428;-94
2022/11/07 07:03:04;;;;;;;1.55;0.70;;;29.10;50.20;;;;;;4996063;28;20401;-85
2022/11/07 07:05:32;;;;;;;2.78;0.60;;;29.10;49.80;;;;;;4996692;28;20768;-88
2022/11/07 07:08:00;;;;;;;1.65;0.60;;;28.90;50.00;;;;;;4999179;28;20391;-82
2022/11/07 07:10:27;;;;;;;1.52;0.47;;;28.70;49.90;;;;;;5000879;28;20401;-83
2022/11/07 07:12:55;;;;;;;1.80;0.60;;;28.20;49.60;;;;;;4994527;28;20393;-85
2022/11/07 07:15:22;;;;;;;1.10;0.50;;;28.10;49.70;;;;;;5002165;28;20399;-87
2022/11/07 07:17:49;;;;;;;0.57;0.30;;;28.10;48.80;;;;;;5017871;28;20748;-83
2022/11/07 07:20:16;;;;;;;0.68;0.50;;;28.10;48.70;;;;;;5008979;28;20428;-87
2022/11/07 07:22:47;;;;;;;2.17;0.40;;;28.00;49.50;;;;;;5004046;28;20414;-90
2022/11/07 07:25:15;;;;;;;0.95;0.47;;;28.00;49.20;;;;;;4993967;28;20398;-91
2022/11/07 07:27:42;;;;;;;1.27;0.50;;;27.80;49.70;;;;;;5004214;28;20392;-92
2022/11/07 07:30:09;;;;;;;1.63;0.50;;;27.40;50.30;;;;;;5015665;28;20454;-88
2022/11/07 07:32:37;;;;;;;1.08;0.50;;;26.80;51.40;;;;;;5013805;28;20471;-88
2022/11/07 07:35:04;;;;;;;2.00;0.50;;;26.20;52.70;;;;;;5011536;28;20445;-82
2022/11/07 07:37:31;;;;;;;1.15;0.50;;;26.10;53.50;;;;;;5011823;28;20379;-84
2022/11/07 07:39:58;;;;;;;1.08;0.50;;;26.00;54.00;;;;;;5011004;28;20874;-87
2022/11/07 07:42:25;;;;;;;1.77;0.50;;;26.00;54.60;;;;;;5014571;28;20387;-84
2022/11/07 07:44:52;;;;;;;1.00;0.52;;;25.80;54.50;;;;;;4998951;28;20400;-84
2022/11/07 07:47:19;;;;;;;2.17;0.68;;;25.70;55.10;;;;;;5013830;28;20392;-91
2022/11/07 07:49:46;;;;;;;1.00;0.60;;;25.60;55.90;;;;;;5013779;28;20882;-84
2022/11/07 07:52:13;;;;;;;0.77;0.47;;;25.60;56.00;;;;;;5001680;28;20432;-84
2022/11/07 07:54:40;;;;;;;2.53;0.63;;;25.60;56.10;;;;;;5006242;28;20440;-83
2022/11/07 07:57:07;;;;;;;1.30;0.57;;;25.20;56.80;;;;;;4999371;28;20806;-90
2022/11/07 07:59:34;;;;;;;1.35;0.60;;;24.80;57.90;;;;;;4989961;28;20803;-83
2022/11/07 08:02:01;;;;;;;2.15;0.60;;;24.40;58.90;;;;;;5004677;28;20457;-82
2022/11/07 08:04:31;;;;;;;1.80;0.52;;;23.90;60.80;;;;;;5000328;28;20387;-84
2022/11/07 08:06:58;;;;;;;2.15;0.60;;;23.50;62.30;;;;;;5005919;28;20891;-87
2022/11/07 08:09:26;;;;;;;3.00;0.80;;;23.30;63.60;;;;;;5028500;28;20414;-87
2022/11/07 08:11:53;;;;;;;4.22;0.80;;;23.00;64.70;;;;;;4993570;28;20446;-89
2022/11/07 08:14:20;;;;;;;2.63;0.90;;;22.80;65.40;;;;;;4995143;28;20385;-89
2022/11/07 08:16:47;;;;;;;1.75;0.80;;;22.60;66.50;;;;;;5004972;28;20447;-83
2022/11/07 08:19:14;;;;;;;2.60;0.60;;;22.30;67.00;;;;;;4999718;28;20388;-87
2022/11/07 08:21:43;;;;;;;3.33;0.80;;;22.10;67.60;;;;;;4987742;28;20392;-85
2022/11/07 08:24:10;;;;;;;1.83;0.75;;;21.80;68.90;;;;;;5005629;28;20723;-88
2022/11/07 08:26:37;;;;;;;1.80;0.68;;;21.50;69.80;;;;;;4997237;28;20898;-82
2022/11/07 08:29:04;;;;;;;2.63;0.77;;;21.40;71.50;;;;;;4993231;28;20411;-87
2022/11/07 08:31:31;;;;;;;2.33;0.63;;;21.20;72.80;;;;;;4991657;28;20486;-83
2022/11/07 08:33:59;;;;;;;3.93;0.77;;;21.10;73.40;;;;;;5001057;28;20441;-82
2022/11/07 08:36:27;;;;;;;2.63;0.73;;;20.90;74.70;;;;;;5009773;28;20403;-88
2022/11/07 08:38:54;;;;;;;3.17;0.80;;;20.80;75.50;;;;;;5012999;28;20406;-84
2022/11/07 08:41:21;;;;;;;2.20;0.70;;;20.60;76.40;;;;;;5002526;28;20487;-89
2022/11/07 08:43:48;;;;;;;2.83;0.70;;;20.50;78.00;;;;;;4996880;28;20476;-86
2022/11/07 08:46:15;;;;;;;3.95;0.85;;;20.30;79.60;;;;;;5007755;28;20505;-85
2022/11/07 08:48:42;;;;;;;3.25;0.70;;;20.20;81.70;;;;;;5011166;28;20423;-86
2022/11/07 08:51:09;;;;;;;3.35;0.73;;;20.10;84.70;;;;;;4999074;28;20383;-82
2022/11/07 08:53:36;;;;;;;4.15;0.80;;;20.00;87.90;;;;;;5011058;28;20378;-84
2022/11/07 08:56:08;;;;;;;5.55;0.90;;;19.90;90.50;;;;;;4994062;28;20389;-84
2022/11/07 08:58:36;;;;;;;4.63;0.98;;;19.80;92.80;;;;;;5002999;28;20444;-83
2022/11/07 09:01:08;;;;;;;3.03;0.90;;;19.80;94.00;;;;;;4998516;28;20388;-84
2022/11/07 09:03:39;;;;;;;2.40;0.88;;;19.70;95.40;;;;;;5003000;28;20465;-90
2022/11/07 09:06:06;;;;;;;3.90;0.90;;;19.60;96.70;;;;;;5004544;28;20412;-88
2022/11/07 09:08:33;;;;;;;4.93;0.87;;;19.70;97.70;;;;;;4994686;28;20426;-87
2022/11/07 09:11:04;;;;;;;3.03;0.90;;;19.70;98.40;;;;;;4993079;28;20389;-83
2022/11/07 09:13:33;;;;;;;4.65;1.08;;;19.70;99.20;;;;;;5002507;28;21238;-89
2022/11/07 09:16:02;;;;;;;5.13;1.00;;;19.60;99.80;;;;;;4998709;28;20445;-90
2022/11/07 09:18:30;;;;;;;3.92;0.80;;;19.50;99.90;;;;;;5004149;28;20396;-85
2022/11/07 09:20:57;;;;;;;4.45;1.00;;;19.40;99.90;;;;;;4998401;28;20411;-86
2022/11/07 09:23:25;;;;;;;2.67;0.80;;;19.30;99.90;;;;;;4982022;28;20436;-88
2022/11/07 09:25:53;;;;;;;2.95;0.80;;;19.20;99.90;;;;;;4991885;28;20400;-90
2022/11/07 09:28:20;;;;;;;4.18;0.80;;;19.20;99.90;;;;;;5009224;28;20399;-86
2022/11/07 09:30:52;;;;;;;5.45;1.02;;;19.20;99.90;;;;;;4986365;28;20876;-90
2022/11/07 09:33:19;;;;;;;2.67;0.85;;;19.10;99.90;;;;;;4988504;28;20409;-86
2022/11/07 09:35:47;;;;;;;5.15;1.15;;;19.20;99.90;;;;;;4992962;28;20377;-87
2022/11/07 09:38:14;;;;;;;4.30;0.93;;;19.00;99.90;;;;;;4989134;28;20891;-85
2022/11/07 09:40:56;;;;;;;4.13;1.10;;;19.00;99.90;;;;;;4988529;28;20828;-85
2022/11/07 09:43:46;;;;;;;3.85;0.95;;;18.90;99.90;;;;;;4990769;28;20379;-85
2022/11/07 09:46:31;;;;;;;2.78;1.00;;;18.90;99.90;;;;;;4998998;28;20411;-88
2022/11/07 09:49:15;;;;;;;3.53;1.10;;;18.90;99.90;;;;;;4993714;28;20881;-85
2022/11/07 09:51:51;;;;;;;4.00;1.00;;;18.80;99.90;;;;;;5006306;28;20414;-90
2022/11/07 09:54:32;;;;;;;5.20;1.13;;;18.80;99.90;;;;;;4993715;28;20825;-85
2022/11/07 09:57:00;;;;;;;5.88;1.20;;;18.80;99.90;;;;;;4991429;28;20388;-84
2022/11/07 09:59:57;;;;;;;6.05;1.20;;;18.70;99.90;;;;;;4993916;28;20464;-92
2022/11/07 10:02:32;;;;;;;4.45;1.20;;;18.70;99.90;;;;;;4983718;28;20455;-84
2022/11/07 10:05:02;;;;;;;4.53;1.25;;;18.70;99.90;;;;;;5003578;28;20398;-84
2022/11/07 10:07:39;;;;;;;5.05;1.00;;;18.60;99.90;;;;;;5009137;28;20387;-84
2022/11/07 10:10:47;;;;;;;4.20;1.00;;;18.60;99.90;;;;;;5005112;28;20394;-87
2022/11/07 10:13:38;;;;;;;4.50;1.08;;;18.50;99.90;;;;;;4940994;28;20388;-87
2022/11/07 10:16:25;;;;;;;3.88;1.23;;;18.50;99.90;;;;;;4948545;28;20414;-84
2022/11/07 10:19:27;;;;;;;5.43;1.00;;;18.50;99.90;;;;;;4952777;28;20404;-89
2022/11/07 10:22:30;;;;;;;5.23;1.17;;;18.40;99.90;;;;;;4959524;28;20776;-84
2022/11/07 10:25:21;;;;;;;3.80;1.00;;;18.40;99.90;;;;;;4907117;29;20402;-86
2022/11/07 10:28:08;;;;;;;7.40;1.27;;;18.30;99.90;;;;;;4909101;29;20444;-84
2022/11/07 10:30:35;;;;;;;4.23;1.00;;;18.30;99.90;;;;;;4915080;29;20390;-84
2022/11/07 10:33:14;;;;;;;5.10;1.10;;;18.30;99.90;;;;;;4914964;29;20411;-87
2022/11/07 10:35:50;;;;;;;3.83;1.25;;;18.20;99.90;;;;;;4914400;29;20474;-85
2022/11/07 10:38:26;;;;;;;5.05;1.50;;;18.10;99.90;;;;;;4910596;29;20415;-88
2022/11/07 10:40:54;;;;;;;3.30;1.10;;;18.00;99.90;;;;;;4916857;29;20514;-88
2022/11/07 10:43:35;;;;;;;3.47;1.02;;;18.00;99.90;;;;;;4917883;29;20403;-86
2022/11/07 10:46:06;;;;;;;4.60;1.10;;;18.00;99.90;;;;;;4918501;29;20462;-86
2022/11/07 10:48:34;;;;;;;6.20;1.20;;;18.00;99.90;;;;;;4917383;29;20395;-87
2022/11/07 10:51:01;;;;;;;4.93;1.10;;;18.00;99.90;;;;;;4947627;28;20411;-86
2022/11/07 10:53:43;;;;;;;3.03;1.00;;;17.90;99.90;;;;;;4945336;28;20473;-85
2022/11/07 10:56:13;;;;;;;5.60;1.00;;;17.80;99.90;;;;;;4955580;28;20392;-85
2022/11/07 10:58:45;;;;;;;4.00;1.20;;;17.70;99.90;;;;;;4946763;28;20980;-87
2022/11/07 11:01:12;;;;;;;3.33;0.90;;;17.70;99.90;;;;;;4975723;28;20395;-87
2022/11/07 11:03:41;;;;;;;3.13;1.07;;;17.60;99.90;;;;;;5004557;28;20400;-87
2022/11/07 11:06:11;;;;;;;2.53;0.95;;;17.50;99.90;;;;;;5001787;28;20791;-88
2022/11/07 11:08:39;;;;;;;4.53;1.05;;;17.50;99.90;;;;;;4998721;28;20412;-84
2022/11/07 11:11:21;;;;;;;4.45;1.00;;;17.40;99.90;;;;;;4995483;28;20401;-85
2022/11/07 11:13:48;;;;;;;7.47;1.50;;;17.30;99.90;;;;;;4995867;28;20381;-86
2022/11/07 11:16:33;;;;;;;6.00;1.33;;;17.20;99.90;;;;;;5011262;28;20387;-86
2022/11/07 11:19:01;;;;;;;3.63;1.20;;;17.10;99.90;;;;;;4989317;28;20848;-86
2022/11/07 11:21:53;;;;;;;4.00;1.48;;;17.10;99.90;;;;;;4998258;28;20377;-87
2022/11/07 11:24:24;;;;;;;2.88;1.13;;;17.10;99.90;;;;;;5008030;28;20458;-86
2022/11/07 11:26:54;;;;;;;4.72;1.40;;;17.00;99.90;;;;;;5000560;28;20443;-86
2022/11/07 11:29:38;;;;;;;3.70;1.20;;;17.00;99.90;;;;;;5007603;28;20393;-87
2022/11/07 11:32:31;;;;;;;5.32;1.30;;;16.90;99.90;;;;;;5002485;28;20391;-88
2022/11/07 11:35:30;;;;;;;4.32;1.20;;;17.30;99.90;;;;;;5016829;28;20482;-86
2022/11/07 11:38:26;;;;;;;5.63;1.30;;;16.80;99.90;;;;;;5006789;28;20820;-87
2022/11/07 11:41:07;;;;;;;5.10;1.50;;;16.80;99.90;;;;;;5009705;28;20422;-86
2022/11/07 11:43:45;;;;;;;5.78;1.33;;;16.80;99.90;;;;;;5021007;28;20397;-87
2022/11/07 11:46:32;;;;;;;4.67;1.20;;;16.70;99.90;;;;;;5026038;28;20401;-86
2022/11/07 11:49:04;;;;;;;4.53;1.20;;;16.60;99.90;;;;;;5019359;28;20389;-87
2022/11/07 11:51:46;;;;;;;3.97;1.20;;;16.60;99.90;;;;;;5026395;28;20426;-86
2022/11/07 11:54:15;;;;;;;4.20;1.40;;;16.60;99.90;;;;;;5013571;28;20387;-88
2022/11/07 11:57:13;;;;;;;4.80;1.30;;;16.50;99.90;;;;;;5014757;28;20834;-85
2022/11/07 11:59:55;;;;;;;4.07;1.20;;;16.50;99.90;;;;;;5013339;28;20395;-87
2022/11/07 12:02:46;;;;;;;4.07;1.40;;;16.50;99.90;;;;;;5011590;28;20410;-84
2022/11/07 12:05:19;;;;;;;5.75;1.20;;;16.40;99.90;;;;;;5024937;28;20398;-86
2022/11/07 12:07:55;;;;;;;5.93;1.20;;;16.50;99.90;;;;;;5009143;28;21001;-86
2022/11/07 12:10:58;;;;;;;4.65;1.25;;;16.40;99.90;;;;;;5008751;28;20402;-85
2022/11/07 12:13:40;;;;;;;4.70;1.33;;;16.30;99.90;;;;;;5018414;28;20456;-84
2022/11/07 12:16:18;;;;;;;6.13;1.15;;;16.40;99.90;;;;;;5006272;28;20998;-86
2022/11/07 12:18:58;;;;;;;4.10;0.90;;;16.30;99.90;;;;;;5004497;28;20959;-85
2022/11/07 12:21:32;;;;;;;7.90;1.40;;;16.30;99.90;;;;;;5008076;28;20427;-88
2022/11/07 12:24:22;;;;;;;4.33;1.13;;;16.30;99.90;;;;;;5006228;28;20397;-85
2022/11/07 12:27:00;;;;;;;6.55;1.20;;;16.20;99.90;;;;;;4993272;28;20409;-86
2022/11/07 12:29:39;;;;;;;7.27;1.60;;;16.20;99.90;;;;;;5014092;28;20375;-85
2022/11/07 12:32:13;;;;;;;6.68;1.90;;;16.20;99.90;;;;;;5015518;28;20383;-86
2022/11/07 12:35:17;;;;;;;4.88;1.60;;;16.20;99.90;;;;;;4998385;28;20491;-88
2022/11/07 12:38:08;;;;;;;5.77;1.40;;;16.20;99.90;;;;;;4959141;28;20404;-84
2022/11/07 12:40:56;;;;;;;4.90;1.30;;;16.20;99.90;;;;;;4954930;28;20392;-87
2022/11/07 12:43:26;;;;;;;5.32;1.30;;;16.20;99.90;;;;;;4955725;28;20455;-86
2022/11/07 12:46:09;;;;;;;6.35;1.23;;;16.20;99.90;;;;;;4955500;28;20484;-84
2022/11/07 12:48:55;;;;;;;5.15;1.33;;;16.20;99.90;;;;;;4955286;28;21320;-86
2022/11/07 12:51:38;;;;;;;4.68;1.35;;;16.10;99.90;;;;;;4951165;29;20543;-85
2022/11/07 12:54:30;;;;;;;4.10;1.17;;;16.00;99.90;;;;;;4958895;28;20427;-85
2022/11/07 12:56:57;;;;;;;5.47;1.20;;;16.00;99.90;;;;;;4956641;28;20407;-87
2022/11/07 12:59:31;;;;;;;4.63;1.20;;;16.00;99.90;;;;;;4950865;28;20760;-87
2022/11/07 13:02:29;;;;;;;7.23;1.40;;;15.90;99.90;;;;;;4944097;28;20446;-85
2022/11/07 13:05:04;;;;;;;5.22;1.35;;;15.90;99.90;;;;;;4961204;28;20459;-85
2022/11/07 13:07:48;;;;;;;5.15;1.20;;;15.90;99.90;;;;;;4960057;28;20407;-85
2022/11/07 13:10:30;;;;;;;5.45;1.30;;;15.80;99.90;;;;;;4956893;28;20446;-90
2022/11/07 13:13:00;;;;;;;5.80;1.40;;;15.80;99.90;;;;;;4960249;28;20879;-86
2022/11/07 13:15:28;;;;;;;5.53;1.20;;;15.80;99.90;;;;;;4988111;28;20377;-87
2022/11/07 13:17:55;;;;;;;5.70;1.40;;;15.70;99.90;;;;;;4993520;28;20441;-86
2022/11/07 13:20:22;;;;;;;6.82;1.50;;;15.70;99.90;;;;;;4994115;28;20482;-87